createdAt,value
2023-03-15T04:02:09.892Z,99.90
2023-03-15T04:04:42.178Z,99.90
2023-03-15T04:07:17.131Z,99.90
2023-03-15T04:09:45.527Z,99.90
2023-03-15T04:12:14.470Z,99.90
2023-03-15T04:14:45.277Z,99.90
2023-03-15T04:17:15.369Z,99.90
2023-03-15T04:19:46.803Z,99.90
2023-03-15T04:22:16.571Z,99.90
2023-03-15T04:25:01.908Z,99.90
2023-03-15T04:27:58.776Z,99.90
2023-03-15T04:30:45.697Z,99.90
2023-03-15T04:33:24.658Z,99.90
2023-03-15T04:36:21.517Z,99.90
2023-03-15T04:39:07.354Z,99.90
2023-03-15T04:41:58.083Z,99.90
2023-03-15T04:44:34.649Z,99.90
2023-03-15T04:47:25.493Z,99.90
2023-03-15T04:50:18.256Z,99.90
2023-03-15T04:52:52.117Z,99.90
2023-03-15T04:55:46.130Z,99.90
2023-03-15T04:58:35.352Z,99.90
2023-03-15T05:01:29.958Z,99.90
2023-03-15T05:04:18.073Z,99.90
2023-03-15T05:06:56.798Z,99.90
2023-03-15T05:09:45.983Z,99.90
2023-03-15T05:12:34.206Z,99.90
2023-03-15T05:15:14.694Z,99.90
2023-03-15T05:18:01.504Z,99.90
2023-03-15T05:20:41.712Z,99.90
2023-03-15T05:23:40.177Z,99.90
2023-03-15T05:26:26.646Z,99.90
2023-03-15T05:29:17.721Z,99.90
2023-03-15T05:32:09.001Z,99.90
2023-03-15T05:35:01.318Z,99.90
2023-03-15T05:37:43.617Z,99.90
2023-03-15T05:40:26.805Z,99.90
2023-03-15T05:43:13.804Z,99.90
2023-03-15T05:45:52.616Z,99.90
2023-03-15T05:48:38.951Z,99.90
2023-03-15T05:51:28.610Z,99.90
2023-03-15T05:54:11.258Z,99.90
2023-03-15T05:57:00.695Z,99.90
2023-03-15T05:59:34.278Z,99.90
2023-03-15T06:02:05.168Z,99.90
2023-03-15T06:04:41.638Z,99.90
2023-03-15T06:07:12.144Z,99.90
2023-03-15T06:09:40.014Z,99.90
2023-03-15T06:12:09.561Z,99.90
2023-03-15T06:14:39.649Z,99.90
2023-03-15T06:17:09.410Z,99.90
2023-03-15T06:19:38.011Z,99.90
2023-03-15T06:22:06.185Z,99.90
2023-03-15T06:24:42.597Z,99.90
2023-03-15T06:27:12.048Z,99.90
2023-03-15T06:29:39.936Z,99.90
2023-03-15T06:32:09.124Z,99.90
2023-03-15T06:34:39.229Z,99.90
2023-03-15T06:37:07.539Z,99.90
2023-03-15T06:39:35.587Z,99.90
2023-03-15T06:42:04.530Z,99.90
2023-03-15T06:44:36.225Z,99.90
2023-03-15T06:47:08.295Z,99.90
2023-03-15T06:49:36.396Z,99.90
2023-03-15T06:52:05.389Z,99.90
2023-03-15T06:54:34.275Z,99.90
2023-03-15T06:57:02.299Z,99.90
2023-03-15T06:59:30.265Z,99.90
2023-03-15T07:01:59.439Z,99.90
2023-03-15T07:04:27.385Z,99.90
2023-03-15T07:06:55.232Z,99.90
2023-03-15T07:09:23.222Z,99.90
2023-03-15T07:11:51.025Z,99.90
2023-03-15T07:14:18.871Z,99.90
2023-03-15T07:16:48.622Z,99.90
2023-03-15T07:19:17.806Z,99.90
2023-03-15T07:21:45.970Z,99.90
2023-03-15T07:24:13.840Z,99.90
2023-03-15T07:26:41.712Z,99.90
2023-03-15T07:29:09.570Z,99.90
2023-03-15T07:31:37.438Z,99.90
2023-03-15T07:34:05.530Z,99.90
2023-03-15T07:36:35.857Z,99.90
2023-03-15T07:39:04.809Z,99.90
2023-03-15T07:41:32.929Z,99.90
2023-03-15T07:44:14.729Z,99.90
2023-03-15T07:46:42.618Z,99.90
2023-03-15T07:49:11.418Z,99.90
2023-03-15T07:51:42.246Z,99.90
2023-03-15T07:54:10.170Z,99.90
2023-03-15T07:56:38.062Z,99.90
2023-03-15T07:59:05.903Z,99.90
2023-03-15T08:01:33.776Z,99.90
2023-03-15T08:04:01.645Z,99.90
2023-03-15T08:06:29.490Z,99.90
2023-03-15T08:08:58.674Z,99.90
2023-03-15T08:11:26.637Z,99.90
2023-03-15T08:13:54.521Z,99.90
2023-03-15T08:16:22.403Z,99.90
2023-03-15T08:18:50.336Z,99.90
2023-03-15T08:21:18.160Z,99.90
2023-03-15T08:23:46.076Z,99.90
2023-03-15T08:26:15.418Z,99.90
2023-03-15T08:28:43.274Z,99.90
2023-03-15T08:31:13.798Z,99.90
2023-03-15T08:33:41.790Z,99.90
2023-03-15T08:36:10.208Z,99.90
2023-03-15T08:38:38.618Z,99.90
2023-03-15T08:41:06.750Z,99.90
2023-03-15T08:43:36.121Z,99.90
2023-03-15T08:46:03.989Z,99.90
2023-03-15T08:48:32.480Z,99.90
2023-03-15T08:51:04.019Z,99.90
2023-03-15T08:53:32.017Z,99.90
2023-03-15T08:55:59.894Z,99.90
2023-03-15T08:58:27.970Z,99.90
2023-03-15T09:00:57.785Z,99.90
2023-03-15T09:03:25.698Z,99.90
2023-03-15T09:05:57.725Z,99.90
2023-03-15T09:08:26.242Z,99.90
2023-03-15T09:10:55.950Z,99.90
2023-03-15T09:13:24.132Z,99.90
2023-03-15T09:15:52.408Z,99.90
2023-03-15T09:18:22.567Z,99.90
2023-03-15T09:20:50.791Z,99.90
2023-03-15T09:23:18.633Z,99.90
2023-03-15T09:25:46.696Z,99.90
2023-03-15T09:28:14.548Z,99.90
2023-03-15T09:30:43.517Z,99.90
2023-03-15T09:33:14.521Z,99.90
2023-03-15T09:35:43.853Z,99.90
2023-03-15T09:38:11.863Z,99.90
2023-03-15T09:40:41.986Z,99.90
2023-03-15T09:43:36.308Z,99.90
2023-03-15T09:46:14.556Z,99.90
2023-03-15T09:48:51.239Z,99.90
2023-03-15T09:51:30.240Z,99.90
2023-03-15T09:54:01.839Z,99.90
2023-03-15T09:56:33.829Z,99.90
2023-03-15T09:59:02.976Z,99.90
2023-03-15T10:01:36.047Z,99.90
2023-03-15T10:04:10.073Z,99.90
2023-03-15T10:06:46.033Z,99.90
2023-03-15T10:09:19.109Z,99.90
2023-03-15T10:11:57.814Z,99.90
2023-03-15T10:14:34.427Z,99.90
2023-03-15T10:17:11.344Z,99.90
2023-03-15T10:19:49.397Z,99.90
2023-03-15T10:22:25.611Z,99.90
2023-03-15T10:24:58.217Z,99.90
2023-03-15T10:27:33.027Z,99.90
2023-03-15T10:30:02.249Z,99.90
2023-03-15T10:32:37.101Z,99.90
2023-03-15T10:35:15.017Z,99.90
2023-03-15T10:37:44.670Z,99.90
2023-03-15T10:40:16.129Z,99.90
2023-03-15T10:42:45.408Z,99.90
2023-03-15T10:45:21.009Z,99.90
2023-03-15T10:47:59.628Z,99.90
2023-03-15T10:50:30.919Z,99.90
2023-03-15T10:53:02.633Z,99.90
2023-03-15T10:55:33.859Z,99.90
2023-03-15T10:58:20.063Z,99.90
2023-03-15T11:00:51.819Z,99.90
2023-03-15T11:03:21.680Z,99.90
2023-03-15T11:05:51.902Z,99.90
2023-03-15T11:08:24.150Z,99.90
2023-03-15T11:10:58.234Z,99.90
2023-03-15T11:13:27.914Z,99.90
2023-03-15T11:16:03.719Z,99.90
2023-03-15T11:18:35.603Z,99.90
2023-03-15T11:21:08.150Z,99.90
2023-03-15T11:23:39.290Z,99.90
2023-03-15T11:26:14.073Z,99.90
2023-03-15T11:28:50.298Z,99.90
2023-03-15T11:31:18.365Z,99.90
2023-03-15T11:33:53.679Z,99.90
2023-03-15T11:36:26.052Z,99.90
2023-03-15T11:38:56.236Z,99.90
2023-03-15T11:41:33.783Z,99.90
2023-03-15T11:44:09.224Z,99.90
2023-03-15T11:46:42.572Z,99.90
2023-03-15T11:49:17.579Z,99.90
2023-03-15T11:51:45.636Z,99.90
2023-03-15T11:54:17.318Z,99.90
2023-03-15T11:56:56.344Z,99.90
2023-03-15T11:59:30.014Z,99.90
2023-03-15T12:02:01.017Z,99.90
2023-03-15T12:04:43.885Z,99.90
2023-03-15T12:07:36.805Z,99.90
2023-03-15T12:10:33.398Z,99.90
2023-03-15T12:13:09.065Z,99.90
2023-03-15T12:15:45.647Z,99.90
2023-03-15T12:18:34.888Z,99.90
2023-03-15T12:21:14.001Z,99.90
2023-03-15T12:23:46.678Z,99.90
2023-03-15T12:26:26.493Z,99.90
2023-03-15T12:29:06.717Z,99.90
2023-03-15T12:31:52.415Z,99.90
2023-03-15T12:34:37.069Z,99.90
2023-03-15T12:37:09.208Z,99.90
2023-03-15T12:39:41.089Z,99.90
2023-03-15T12:42:16.321Z,99.90
2023-03-15T12:44:44.959Z,99.90
2023-03-15T12:47:13.547Z,99.90
2023-03-15T12:49:43.661Z,99.90
2023-03-15T12:52:39.377Z,99.90
2023-03-15T12:55:15.733Z,99.90
2023-03-15T12:57:50.218Z,99.90
2023-03-15T13:00:21.688Z,99.90
2023-03-15T13:02:51.888Z,99.90
2023-03-15T13:05:31.725Z,99.90
2023-03-15T13:08:08.961Z,99.90
2023-03-15T13:10:52.307Z,99.90
2023-03-15T13:13:40.217Z,99.90
2023-03-15T13:16:22.447Z,99.90
2023-03-15T13:18:59.322Z,99.90
2023-03-15T13:21:32.508Z,99.90
2023-03-15T13:24:00.728Z,99.90
2023-03-15T13:26:40.541Z,99.90
2023-03-15T13:29:17.334Z,99.90
2023-03-15T13:31:46.664Z,99.90
2023-03-15T13:34:17.004Z,99.90
2023-03-15T13:36:47.300Z,99.90
2023-03-15T13:39:23.132Z,99.90
2023-03-15T13:41:57.349Z,99.90
2023-03-15T13:44:27.894Z,99.90
2023-03-15T13:46:57.239Z,99.90
2023-03-15T13:49:25.898Z,99.90
2023-03-15T13:51:54.777Z,99.90
2023-03-15T13:54:27.571Z,99.90
2023-03-15T13:57:03.540Z,99.90
2023-03-15T13:59:38.187Z,99.90
2023-03-15T14:02:07.934Z,99.90
2023-03-15T14:04:39.306Z,99.90
2023-03-15T14:07:25.497Z,99.90
2023-03-15T14:10:10.446Z,99.90
2023-03-15T14:12:39.251Z,99.90
2023-03-15T14:15:18.076Z,99.90
2023-03-15T14:17:55.279Z,99.90
2023-03-15T14:20:28.447Z,99.90
2023-03-15T14:23:02.341Z,97.20
2023-03-15T14:25:31.866Z,90.40
2023-03-15T14:28:04.509Z,77.50
2023-03-15T14:30:39.191Z,69.80
2023-03-15T14:33:08.852Z,67.70
2023-03-15T14:35:44.545Z,69.80
2023-03-15T14:38:18.927Z,67.30
2023-03-15T14:40:47.540Z,67.20
2023-03-15T14:43:15.884Z,65.80
2023-03-15T14:45:48.998Z,67.00
2023-03-15T14:48:22.244Z,68.20
2023-03-15T14:50:50.268Z,69.20
2023-03-15T14:53:21.839Z,70.60
2023-03-15T14:55:49.739Z,72.00
2023-03-15T14:58:19.772Z,75.20
2023-03-15T15:00:51.579Z,73.60
2023-03-15T15:03:26.712Z,71.20
2023-03-15T15:05:54.638Z,72.90
2023-03-15T15:08:23.153Z,71.10
2023-03-15T15:10:53.018Z,68.30
2023-03-15T15:13:23.681Z,67.30
2023-03-15T15:15:56.160Z,70.90
2023-03-15T15:18:26.608Z,65.60
2023-03-15T15:20:56.154Z,63.90
2023-03-15T15:23:26.960Z,66.80
2023-03-15T15:25:58.064Z,62.60
2023-03-15T15:28:35.199Z,64.90
2023-03-15T15:31:06.632Z,64.00
2023-03-15T15:33:34.796Z,63.80
2023-03-15T15:36:03.212Z,65.10
2023-03-15T15:38:38.289Z,66.10
2023-03-15T15:41:07.524Z,67.30
2023-03-15T15:43:35.453Z,69.70
2023-03-15T15:46:04.700Z,69.80
2023-03-15T15:48:32.731Z,72.40
2023-03-15T15:51:00.598Z,71.30
2023-03-15T15:53:32.740Z,73.20
2023-03-15T15:56:00.761Z,69.70
2023-03-15T15:58:28.682Z,70.80
2023-03-15T16:00:56.534Z,71.60
2023-03-15T16:03:26.020Z,68.20
2023-03-15T16:05:53.967Z,66.40
2023-03-15T16:08:25.554Z,67.50
2023-03-15T16:10:53.481Z,68.00
2023-03-15T16:13:21.472Z,69.50
2023-03-15T16:15:49.441Z,70.40
2023-03-15T16:18:17.303Z,69.30
2023-03-15T16:20:46.703Z,69.20
2023-03-15T16:23:20.438Z,70.00
2023-03-15T16:25:50.160Z,71.20
2023-03-15T16:28:18.113Z,68.20
2023-03-15T16:30:46.961Z,72.30
2023-03-15T16:33:17.129Z,72.00
2023-03-15T16:35:48.541Z,68.60
2023-03-15T16:38:23.885Z,71.70
2023-03-15T16:40:53.057Z,71.50
2023-03-15T16:43:21.096Z,70.70
2023-03-15T16:45:48.987Z,69.10
2023-03-15T16:48:16.846Z,72.30
2023-03-15T16:50:46.572Z,71.70
2023-03-15T16:53:14.578Z,71.80
2023-03-15T16:55:42.565Z,73.20
2023-03-15T16:58:18.085Z,74.00
2023-03-15T17:00:47.905Z,72.20
2023-03-15T17:03:17.231Z,75.00
2023-03-15T17:05:48.583Z,77.20
2023-03-15T17:08:20.892Z,75.70
2023-03-15T17:10:49.268Z,74.50
2023-03-15T17:13:21.816Z,73.50
2023-03-15T17:15:49.719Z,76.30
2023-03-15T17:18:19.692Z,75.60
2023-03-15T17:20:50.703Z,76.60
2023-03-15T17:23:20.924Z,76.30
2023-03-15T17:25:50.306Z,75.90
2023-03-15T17:28:18.310Z,77.40
2023-03-15T17:30:46.277Z,79.30
2023-03-15T17:33:14.206Z,79.90
2023-03-15T17:35:44.829Z,80.10
2023-03-15T17:38:18.352Z,80.60
2023-03-15T17:40:46.909Z,76.80
2023-03-15T17:43:17.303Z,77.00
2023-03-15T17:45:45.168Z,77.80
2023-03-15T17:48:13.252Z,77.10
2023-03-15T17:50:43.513Z,79.10
2023-03-15T17:53:16.364Z,81.20
2023-03-15T17:55:44.458Z,81.60
2023-03-15T17:58:17.114Z,81.10
2023-03-15T18:00:45.194Z,80.90
2023-03-15T18:03:14.269Z,81.40
2023-03-15T18:05:42.635Z,82.30
2023-03-15T18:08:12.100Z,82.10
2023-03-15T18:10:42.461Z,80.50
2023-03-15T18:13:14.673Z,82.00
2023-03-15T18:15:42.515Z,82.40
2023-03-15T18:18:10.482Z,83.60
2023-03-15T18:20:38.426Z,83.70
2023-03-15T18:23:06.490Z,84.70
2023-03-15T18:25:35.842Z,85.10
2023-03-15T18:28:05.250Z,86.10
2023-03-15T18:30:33.623Z,86.10
2023-03-15T18:33:01.930Z,85.40
2023-03-15T18:35:31.820Z,85.80
2023-03-15T18:38:00.144Z,86.10
2023-03-15T18:40:30.955Z,87.10
2023-03-15T18:43:00.267Z,87.70
2023-03-15T18:45:31.133Z,87.80
2023-03-15T18:48:00.138Z,88.10
2023-03-15T18:50:28.706Z,88.40
2023-03-15T18:52:56.601Z,89.10
2023-03-15T18:55:24.907Z,88.70
2023-03-15T18:57:54.121Z,88.60
2023-03-15T19:00:25.967Z,89.50
2023-03-15T19:02:57.140Z,90.20
2023-03-15T19:05:25.672Z,90.30
2023-03-15T19:07:53.564Z,90.30
2023-03-15T19:10:23.641Z,90.70
2023-03-15T19:12:52.291Z,91.20
2023-03-15T19:15:21.495Z,91.60
2023-03-15T19:17:51.243Z,91.60
2023-03-15T19:20:22.346Z,91.60
2023-03-15T19:22:51.042Z,91.50
2023-03-15T19:25:19.530Z,91.70
2023-03-15T19:27:47.390Z,91.50
2023-03-15T19:30:20.820Z,92.00
2023-03-15T19:32:50.228Z,92.10
2023-03-15T19:35:20.794Z,92.40
2023-03-15T19:37:49.513Z,92.20
2023-03-15T19:40:19.109Z,92.60
2023-03-15T19:42:48.507Z,92.80
2023-03-15T19:45:17.580Z,92.90
2023-03-15T19:47:45.801Z,93.10
2023-03-15T19:50:15.248Z,92.80
2023-03-15T19:52:46.866Z,93.00
2023-03-15T19:55:15.873Z,92.80
2023-03-15T19:57:44.809Z,92.80
2023-03-15T20:00:15.949Z,92.40
2023-03-15T20:02:44.858Z,92.40
2023-03-15T20:05:15.067Z,91.90
2023-03-15T20:07:44.600Z,92.00
2023-03-15T20:10:13.345Z,92.30
2023-03-15T20:12:42.349Z,92.10
2023-03-15T20:15:12.306Z,92.40
2023-03-15T20:17:40.761Z,92.50
2023-03-15T20:20:11.447Z,92.30
2023-03-15T20:22:41.376Z,91.90
2023-03-15T20:25:11.659Z,92.30
2023-03-15T20:27:40.455Z,92.70
2023-03-15T20:30:10.510Z,93.00
2023-03-15T20:32:38.375Z,93.70
2023-03-15T20:35:09.187Z,94.10
2023-03-15T20:37:40.147Z,94.30
2023-03-15T20:40:12.564Z,94.10
2023-03-15T20:42:41.128Z,94.10
2023-03-15T20:45:10.482Z,94.50
2023-03-15T20:47:38.805Z,94.40
2023-03-15T20:50:07.397Z,94.40
2023-03-15T20:52:35.671Z,94.90
2023-03-15T20:55:05.817Z,94.80
2023-03-15T20:57:36.288Z,94.80
2023-03-15T21:00:12.066Z,95.20
2023-03-15T21:02:40.437Z,95.80
2023-03-15T21:05:09.365Z,95.80
2023-03-15T21:07:37.548Z,95.50
2023-03-15T21:10:06.637Z,95.50
2023-03-15T21:12:35.874Z,96.10
2023-03-15T21:15:04.021Z,96.10
2023-03-15T21:17:31.937Z,96.30
2023-03-15T21:20:00.677Z,96.50
2023-03-15T21:22:28.589Z,97.00
2023-03-15T21:24:56.576Z,97.20
2023-03-15T21:27:26.116Z,97.30
2023-03-15T21:29:55.796Z,97.40
2023-03-15T21:32:23.879Z,97.60
2023-03-15T21:34:52.006Z,97.60
2023-03-15T21:37:20.220Z,97.70
2023-03-15T21:39:48.449Z,97.80
2023-03-15T21:42:16.335Z,97.80
2023-03-15T21:44:44.170Z,97.90
2023-03-15T21:47:14.558Z,97.90
2023-03-15T21:49:44.678Z,97.70
2023-03-15T21:52:12.711Z,97.50
2023-03-15T21:54:42.013Z,96.80
2023-03-15T21:57:09.890Z,96.90
2023-03-15T21:59:37.760Z,97.60
2023-03-15T22:02:07.902Z,97.60
2023-03-15T22:04:37.250Z,97.40
2023-03-15T22:07:05.176Z,97.60
2023-03-15T22:09:33.043Z,97.70
2023-03-15T22:12:01.068Z,97.90
2023-03-15T22:14:29.033Z,98.10
2023-03-15T22:16:56.996Z,98.60
2023-03-15T22:19:25.022Z,98.70
2023-03-15T22:21:55.159Z,99.20
2023-03-15T22:24:22.983Z,98.80
2023-03-15T22:26:52.878Z,98.80
2023-03-15T22:29:21.170Z,98.90
2023-03-15T22:31:49.039Z,99.00
2023-03-15T22:34:16.918Z,98.90
2023-03-15T22:36:44.764Z,99.10
2023-03-15T22:39:14.290Z,99.30
2023-03-15T22:41:42.151Z,99.40
2023-03-15T22:44:10.040Z,99.50
2023-03-15T22:46:37.889Z,99.30
2023-03-15T22:49:05.874Z,99.10
2023-03-15T22:51:33.696Z,99.40
2023-03-15T22:54:01.560Z,99.50
2023-03-15T22:56:30.847Z,99.50
2023-03-15T22:58:58.681Z,99.90
